createdAt,value
2022-10-02T00:01:18.194Z,100026.34
2022-10-02T00:03:47.286Z,99996.03
2022-10-02T00:06:21.397Z,100016.22
2022-10-02T00:08:53.061Z,100028.34
2022-10-02T00:11:25.740Z,100026.50
2022-10-02T00:13:57.568Z,100027.50
2022-10-02T00:16:30.551Z,100028.34
2022-10-02T00:18:58.857Z,100029.19
2022-10-02T00:21:52.532Z,100022.97
2022-10-02T00:24:25.289Z,100024.81
2022-10-02T00:26:58.239Z,100018.59
2022-10-02T00:29:34.369Z,100025.81
2022-10-02T00:32:16.566Z,100021.59
2022-10-02T00:34:58.195Z,100017.34
2022-10-02T00:37:35.234Z,99951.69
2022-10-02T00:40:26.998Z,100022.16
2022-10-02T00:43:06.425Z,100023.28
2022-10-02T00:46:03.651Z,100026.13
2022-10-02T00:48:58.554Z,100025.41
2022-10-02T00:51:38.041Z,100027.28
2022-10-02T00:54:21.008Z,100021.03
2022-10-02T00:56:59.572Z,100017.66
2022-10-02T00:59:44.810Z,100013.28
2022-10-02T01:02:35.113Z,100010.75
2022-10-02T01:05:10.665Z,100020.63
2022-10-02T01:07:42.889Z,99986.56
2022-10-02T01:10:12.837Z,99891.41
2022-10-02T01:12:41.237Z,99978.63
2022-10-02T01:15:13.398Z,99912.59
2022-10-02T01:17:42.304Z,99887.88
2022-10-02T01:20:17.751Z,99925.28
2022-10-02T01:22:53.770Z,99981.16
2022-10-02T01:25:23.320Z,99889.28
2022-10-02T01:27:53.542Z,100012.38
2022-10-02T01:30:22.773Z,100006.19
2022-10-02T01:32:53.539Z,99981.84
2022-10-02T01:35:25.966Z,99892.81
2022-10-02T01:37:56.422Z,99979.19
2022-10-02T01:40:28.309Z,99964.06
2022-10-02T01:42:58.424Z,99860.22
2022-10-02T01:45:47.568Z,99896.06
2022-10-02T01:48:22.930Z,99909.91
2022-10-02T01:51:06.146Z,99971.72
2022-10-02T01:53:44.003Z,100009.16
2022-10-02T01:56:20.203Z,99900.28
2022-10-02T01:58:57.807Z,99922.31
2022-10-02T02:01:44.845Z,99975.66
2022-10-02T02:04:22.365Z,99953.53
2022-10-02T02:06:57.787Z,100016.38
2022-10-02T02:09:33.036Z,100011.00
2022-10-02T02:12:10.088Z,99984.88
2022-10-02T02:14:43.625Z,100016.38
2022-10-02T02:17:16.402Z,99909.22
2022-10-02T02:19:50.180Z,100011.97
2022-10-02T02:22:23.614Z,99984.53
2022-10-02T02:24:56.401Z,99912.59
2022-10-02T02:27:29.512Z,99975.25
2022-10-02T02:30:04.002Z,100010.28
2022-10-02T02:32:36.589Z,99996.13
2022-10-02T02:35:08.903Z,99860.63
2022-10-02T02:37:40.967Z,99970.59
2022-10-02T02:40:14.786Z,99898.47
2022-10-02T02:42:50.647Z,99917.09
2022-10-02T02:45:22.608Z,100014.81
2022-10-02T02:47:53.917Z,99890.59
2022-10-02T02:50:25.767Z,99891.53
2022-10-02T02:52:59.022Z,99977.09
2022-10-02T02:55:33.490Z,99893.09
2022-10-02T02:58:08.941Z,99883.78
2022-10-02T03:00:37.207Z,99885.63
2022-10-02T03:03:05.434Z,99900.88
2022-10-02T03:05:34.658Z,99972.69
2022-10-02T03:08:06.270Z,99854.56
2022-10-02T03:10:47.175Z,99977.81
2022-10-02T03:13:30.543Z,99984.69
2022-10-02T03:16:12.989Z,99896.78
2022-10-02T03:18:55.703Z,100009.72
2022-10-02T03:21:29.753Z,99897.75
2022-10-02T03:24:05.493Z,100004.22
2022-10-02T03:26:39.732Z,100005.22
2022-10-02T03:29:15.152Z,99830.44
2022-10-02T03:31:44.396Z,99880.69
2022-10-02T03:34:13.422Z,99950.41
2022-10-02T03:36:41.563Z,99907.25
2022-10-02T03:39:24.655Z,99883.94
2022-10-02T03:41:54.401Z,100011.13
2022-10-02T03:44:23.731Z,99973.41
2022-10-02T03:46:51.790Z,99847.50
2022-10-02T03:49:19.787Z,99885.75
2022-10-02T03:51:47.823Z,100000.94
2022-10-02T03:54:18.675Z,99908.06
2022-10-02T03:56:55.492Z,99907.94
2022-10-02T03:59:37.133Z,99995.56
2022-10-02T04:02:10.499Z,99998.38
2022-10-02T04:04:47.346Z,99951.56
2022-10-02T04:07:23.002Z,99905.38
2022-10-02T04:09:55.456Z,99992.47
2022-10-02T04:12:28.265Z,99987.69
2022-10-02T04:15:03.167Z,100000.25
2022-10-02T04:17:38.066Z,99877.81
2022-10-02T04:20:12.030Z,99883.91
2022-10-02T04:22:42.718Z,99913.69
2022-10-02T04:25:15.547Z,99947.19
2022-10-02T04:27:49.340Z,100007.72
2022-10-02T04:30:20.505Z,100004.19
2022-10-02T04:32:49.417Z,99888.03
2022-10-02T04:35:21.289Z,99852.44
2022-10-02T04:38:03.534Z,99961.97
2022-10-02T04:40:54.639Z,100002.38
2022-10-02T04:43:37.992Z,99873.75
2022-10-02T04:46:19.270Z,100005.22
2022-10-02T04:49:05.436Z,99920.50
2022-10-02T04:51:52.569Z,99902.72
2022-10-02T04:54:46.517Z,100012.53
2022-10-02T04:57:32.713Z,99890.69
2022-10-02T05:00:07.595Z,99981.22
2022-10-02T05:02:57.774Z,100016.22
2022-10-02T05:05:41.065Z,100012.69
2022-10-02T05:08:29.307Z,99956.06
2022-10-02T05:11:24.581Z,99898.47
2022-10-02T05:14:07.286Z,100006.63
2022-10-02T05:16:57.326Z,99973.16
2022-10-02T05:19:39.029Z,100002.94
2022-10-02T05:22:29.399Z,100009.88
2022-10-02T05:25:12.607Z,99987.84
2022-10-02T05:28:00.635Z,99987.00
2022-10-02T05:30:34.598Z,100005.78
2022-10-02T05:33:24.184Z,100023.72
2022-10-02T05:36:10.336Z,100019.34
2022-10-02T05:39:00.895Z,99911.16
2022-10-02T05:41:38.740Z,100021.19
2022-10-02T05:44:13.530Z,100001.25
2022-10-02T05:46:46.983Z,99935.75
2022-10-02T05:49:22.037Z,99931.66
2022-10-02T05:51:58.095Z,100032.78
2022-10-02T05:54:43.037Z,100028.22
2022-10-02T05:57:17.902Z,100006.06
2022-10-02T05:59:57.226Z,100034.63
2022-10-02T06:02:38.868Z,99940.53
2022-10-02T06:05:16.231Z,99967.81
2022-10-02T06:07:49.878Z,100030.38
2022-10-02T06:10:22.750Z,99917.63
2022-10-02T06:12:56.772Z,100039.41
2022-10-02T06:15:32.029Z,99943.50
2022-10-02T06:18:05.240Z,99926.00
2022-10-02T06:20:38.877Z,100041.50
2022-10-02T06:23:14.210Z,100058.63
2022-10-02T06:25:46.133Z,99937.25
2022-10-02T06:28:19.243Z,100020.06
2022-10-02T06:30:54.054Z,99989.41
2022-10-02T06:33:24.953Z,99969.44
2022-10-02T06:36:04.936Z,100070.50
2022-10-02T06:38:48.715Z,100005.22
2022-10-02T06:41:25.056Z,100058.34
2022-10-02T06:44:13.722Z,99950.53
2022-10-02T06:46:52.433Z,100077.41
2022-10-02T06:49:31.046Z,99946.72
2022-10-02T06:52:09.526Z,99955.63
2022-10-02T06:55:04.569Z,99965.34
2022-10-02T06:57:59.478Z,99954.47
2022-10-02T07:00:27.411Z,99957.13
2022-10-02T07:03:31.680Z,100072.34
2022-10-02T07:06:17.178Z,100065.00
2022-10-02T07:09:21.073Z,100075.84
2022-10-02T07:11:55.577Z,100055.09
2022-10-02T07:14:41.617Z,100083.63
2022-10-02T07:17:26.674Z,99977.06
2022-10-02T07:20:29.574Z,99986.81
2022-10-02T07:23:13.921Z,100067.78
2022-10-02T07:26:03.315Z,99995.72
2022-10-02T07:28:42.289Z,100102.28
2022-10-02T07:31:21.527Z,99975.50
2022-10-02T07:34:03.193Z,99947.41
2022-10-02T07:36:44.294Z,100093.50
2022-10-02T07:39:25.608Z,100053.09
2022-10-02T07:42:18.299Z,99992.31
2022-10-02T07:45:12.552Z,100080.41
2022-10-02T07:48:00.533Z,100016.94
2022-10-02T07:50:34.302Z,99963.34
2022-10-02T07:53:10.393Z,99986.81
2022-10-02T07:55:42.412Z,99956.84
2022-10-02T07:58:15.687Z,99977.47
2022-10-02T08:00:50.274Z,100058.59
2022-10-02T08:03:21.282Z,100015.88
2022-10-02T08:05:52.653Z,100086.59
2022-10-02T08:08:25.323Z,100070.44
2022-10-02T08:10:57.434Z,100005.97
2022-10-02T08:13:32.482Z,100089.81
2022-10-02T08:16:05.128Z,100089.97
2022-10-02T08:18:37.774Z,100040.31
2022-10-02T08:21:12.443Z,100098.16
2022-10-02T08:23:45.066Z,100007.38
2022-10-02T08:26:17.805Z,100077.63
2022-10-02T08:28:53.659Z,100095.59
2022-10-02T08:31:24.442Z,99987.03
2022-10-02T08:33:52.514Z,100007.19
2022-10-02T08:36:50.208Z,100001.56
2022-10-02T08:39:37.946Z,99954.63
2022-10-02T08:42:47.381Z,99985.59
2022-10-02T08:45:56.412Z,100063.19
2022-10-02T08:49:09.339Z,100074.94
2022-10-02T08:52:14.881Z,100090.13
2022-10-02T08:55:10.753Z,100046.97
2022-10-02T08:58:15.540Z,100095.91
2022-10-02T09:00:55.439Z,99989.16
2022-10-02T09:03:54.678Z,100066.34
2022-10-02T09:06:58.977Z,100024.31
2022-10-02T09:10:02.490Z,100114.28
2022-10-02T09:13:11.062Z,100110.63
2022-10-02T09:15:46.846Z,99995.34
2022-10-02T09:18:26.653Z,99989.16
2022-10-02T09:21:18.696Z,100007.81
2022-10-02T09:24:21.879Z,100116.41
2022-10-02T09:27:08.858Z,100026.91
2022-10-02T09:30:04.859Z,100011.66
2022-10-02T09:33:11.635Z,99996.66
2022-10-02T09:36:01.914Z,99967.69
2022-10-02T09:39:09.765Z,100114.69
2022-10-02T09:42:24.394Z,99963.88
2022-10-02T09:45:30.225Z,100127.97
2022-10-02T09:48:54.923Z,100013.16
2022-10-02T09:52:06.780Z,100068.34
2022-10-02T09:55:17.270Z,100091.09
2022-10-02T09:58:18.834Z,100063.69
2022-10-02T10:01:19.247Z,100111.75
2022-10-02T10:04:53.780Z,100067.75
2022-10-02T10:07:58.636Z,100092.66
2022-10-02T10:10:54.210Z,100121.47
2022-10-02T10:13:54.374Z,100012.19
2022-10-02T10:16:55.943Z,100102.41
2022-10-02T10:19:59.475Z,100134.78
2022-10-02T10:23:03.662Z,100113.41
2022-10-02T10:26:17.973Z,100107.34
2022-10-02T10:29:16.395Z,100133.78
2022-10-02T10:32:27.458Z,100140.31
2022-10-02T10:35:24.813Z,100134.78
2022-10-02T10:38:33.009Z,100115.56
2022-10-02T10:41:26.745Z,100142.28
2022-10-02T10:44:39.117Z,100147.50
2022-10-02T10:47:34.610Z,100086.31
2022-10-02T10:50:20.742Z,100137.50
2022-10-02T10:53:07.706Z,100155.97
2022-10-02T10:55:54.473Z,100141.59
2022-10-02T10:58:36.840Z,100156.72
2022-10-02T11:01:14.441Z,100157.53
2022-10-02T11:04:07.865Z,100147.09
2022-10-02T11:06:56.405Z,100151.88
2022-10-02T11:09:58.348Z,100156.28
2022-10-02T11:13:01.123Z,100149.09
2022-10-02T11:15:51.061Z,100155.16
2022-10-02T11:18:28.710Z,100157.84
2022-10-02T11:21:31.601Z,100155.00
2022-10-02T11:24:32.160Z,100155.00
2022-10-02T11:27:20.029Z,100157.84
2022-10-02T11:30:15.491Z,100142.56
2022-10-02T11:33:16.474Z,100167.47
2022-10-02T11:36:09.634Z,100174.66
2022-10-02T11:39:14.201Z,100172.94
2022-10-02T11:42:14.021Z,100181.16
2022-10-02T11:45:05.837Z,100179.59
2022-10-02T11:47:51.191Z,100192.06
2022-10-02T11:50:49.206Z,100167.16
2022-10-02T11:53:43.229Z,100190.50
2022-10-02T11:56:36.053Z,100169.25
2022-10-02T11:59:34.813Z,100189.91
2022-10-02T12:02:16.206Z,100197.28
2022-10-02T12:04:58.481Z,100197.38
2022-10-02T12:07:39.465Z,100205.59
2022-10-02T12:10:32.592Z,100203.88
2022-10-02T12:13:16.262Z,100201.47
2022-10-02T12:15:56.241Z,100211.25
2022-10-02T12:18:33.731Z,100217.59
2022-10-02T12:21:37.236Z,100213.06
2022-10-02T12:24:34.920Z,100218.59
2022-10-02T12:27:11.857Z,100222.94
2022-10-02T12:29:59.426Z,100195.25
2022-10-02T12:32:58.919Z,100226.22
2022-10-02T12:35:52.100Z,100226.22
2022-10-02T12:38:34.868Z,100231.59
2022-10-02T12:41:13.284Z,100230.75
2022-10-02T12:44:06.058Z,100232.19
2022-10-02T12:46:51.243Z,100234.97
2022-10-02T12:49:36.517Z,100239.22
2022-10-02T12:52:36.194Z,100241.91
2022-10-02T12:55:39.644Z,100240.22
2022-10-02T12:58:18.304Z,100234.72
2022-10-02T13:01:17.262Z,100240.06
2022-10-02T13:04:17.159Z,100241.63
2022-10-02T13:07:26.188Z,100229.50
2022-10-02T13:10:03.279Z,100194.38
2022-10-02T13:12:54.653Z,100233.59
2022-10-02T13:15:40.025Z,100179.53
2022-10-02T13:18:21.543Z,100242.50
2022-10-02T13:21:04.289Z,100242.50
2022-10-02T13:23:42.191Z,100250.56
2022-10-02T13:26:21.253Z,100247.88
2022-10-02T13:29:10.936Z,100256.06
2022-10-02T13:31:51.053Z,100255.50
2022-10-02T13:34:38.718Z,100251.94
2022-10-02T13:37:17.379Z,100257.59
2022-10-02T13:40:03.074Z,100225.34
2022-10-02T13:42:41.307Z,100256.72
2022-10-02T13:45:19.578Z,100206.91
2022-10-02T13:47:58.972Z,100198.28
2022-10-02T13:50:50.271Z,100257.84
2022-10-02T13:53:36.830Z,100244.41
2022-10-02T13:56:18.642Z,100262.41
2022-10-02T13:59:06.642Z,100262.41
2022-10-02T14:01:50.110Z,100270.56
2022-10-02T14:04:46.264Z,100271.44
2022-10-02T14:07:33.605Z,100285.81
2022-10-02T14:10:11.086Z,100281.59
2022-10-02T14:12:50.531Z,100285.97
2022-10-02T14:15:51.045Z,100279.03
2022-10-02T14:18:45.653Z,100291.50
2022-10-02T14:21:23.141Z,100294.19
2022-10-02T14:24:15.905Z,100290.22
2022-10-02T14:27:02.114Z,100294.47
2022-10-02T14:29:39.899Z,100286.56
2022-10-02T14:32:31.267Z,100290.22
2022-10-02T14:35:25.570Z,100298.59
2022-10-02T14:38:25.725Z,100312.59
2022-10-02T14:40:55.057Z,100319.78
2022-10-02T14:43:51.833Z,100310.91
2022-10-02T14:46:30.236Z,100316.81
2022-10-02T14:49:13.495Z,100323.91
2022-10-02T14:52:12.130Z,100326.59
2022-10-02T14:54:53.491Z,100330.13
2022-10-02T14:57:37.673Z,100325.59
2022-10-02T15:00:18.153Z,100331.13
2022-10-02T15:03:11.073Z,100325.47
2022-10-02T15:06:09.613Z,100330.00
2022-10-02T15:08:43.996Z,100339.03
2022-10-02T15:11:23.012Z,100339.75
2022-10-02T15:13:56.220Z,100346.09
2022-10-02T15:16:47.279Z,100342.44
2022-10-02T15:19:20.101Z,100346.63
2022-10-02T15:21:53.906Z,100350.78
2022-10-02T15:24:35.037Z,100355.44
2022-10-02T15:27:22.808Z,100358.22
2022-10-02T15:30:15.322Z,100358.50
2022-10-02T15:33:13.603Z,100364.13
2022-10-02T15:36:10.505Z,100368.78
2022-10-02T15:39:04.848Z,100366.25
2022-10-02T15:41:44.637Z,100369.91
2022-10-02T15:44:36.478Z,100376.16
2022-10-02T15:47:19.549Z,100372.59
2022-10-02T15:50:05.151Z,100375.44
2022-10-02T15:52:46.561Z,100374.84
2022-10-02T15:55:25.146Z,100382.78
2022-10-02T15:58:08.647Z,100386.44
2022-10-02T16:01:01.751Z,100392.06
2022-10-02T16:03:39.911Z,100383.72
2022-10-02T16:06:14.526Z,100392.22
2022-10-02T16:09:03.642Z,100370.59
2022-10-02T16:11:54.998Z,100382.88
2022-10-02T16:14:40.080Z,100386.19
2022-10-02T16:17:37.157Z,100388.72
2022-10-02T16:20:21.032Z,100388.44
2022-10-02T16:23:09.613Z,100397.66
2022-10-02T16:26:00.544Z,100397.41
2022-10-02T16:28:52.775Z,100394.44
2022-10-02T16:31:47.662Z,100406.59
2022-10-02T16:34:29.077Z,100403.81
2022-10-02T16:37:03.592Z,100411.75
2022-10-02T16:39:44.405Z,100416.75
2022-10-02T16:42:23.346Z,100402.09
2022-10-02T16:45:03.634Z,100416.44
2022-10-02T16:47:44.805Z,100425.34
2022-10-02T16:50:19.156Z,100430.47
2022-10-02T16:52:53.512Z,100428.50
2022-10-02T16:55:30.405Z,100431.06
2022-10-02T16:58:10.521Z,100432.63
2022-10-02T17:00:41.993Z,100434.44
2022-10-02T17:03:21.773Z,100432.47
2022-10-02T17:05:55.188Z,100435.03
2022-10-02T17:08:31.649Z,100439.41
2022-10-02T17:11:21.847Z,100443.81
2022-10-02T17:14:03.504Z,100444.66
2022-10-02T17:16:37.880Z,100436.28
2022-10-02T17:19:20.642Z,100453.44
2022-10-02T17:21:54.482Z,100456.81
2022-10-02T17:24:35.595Z,100463.91
2022-10-02T17:27:14.093Z,100467.31
2022-10-02T17:29:51.612Z,100460.97
2022-10-02T17:32:39.853Z,100467.03
2022-10-02T17:35:16.922Z,100475.56
2022-10-02T17:38:24.283Z,100474.53
2022-10-02T17:41:00.210Z,100477.38
2022-10-02T17:43:37.254Z,100479.53
2022-10-02T17:46:30.496Z,100462.53
2022-10-02T17:49:05.397Z,100489.16
2022-10-02T17:51:52.694Z,100492.56
2022-10-02T17:54:58.746Z,100493.28
2022-10-02T17:57:39.729Z,100493.28
2022-10-02T18:00:16.577Z,100493.97
2022-10-02T18:03:10.402Z,100493.97
2022-10-02T18:05:51.160Z,100496.53
2022-10-02T18:08:41.394Z,100506.19
2022-10-02T18:11:20.862Z,100507.03
2022-10-02T18:13:59.843Z,100510.44
2022-10-02T18:16:36.974Z,100514.84
2022-10-02T18:19:29.051Z,100502.91
2022-10-02T18:22:12.948Z,100521.78
2022-10-02T18:25:12.487Z,100522.59
2022-10-02T18:28:08.164Z,100529.69
2022-10-02T18:30:46.187Z,100533.09
2022-10-02T18:33:43.652Z,100533.69
2022-10-02T18:36:39.025Z,100543.56
2022-10-02T18:39:21.171Z,100545.28
2022-10-02T18:41:57.247Z,100545.28
2022-10-02T18:44:45.300Z,100541.59
2022-10-02T18:47:29.020Z,100550.53
2022-10-02T18:50:17.751Z,100553.34
2022-10-02T18:53:11.602Z,100553.34
2022-10-02T18:56:02.820Z,100551.50
2022-10-02T18:58:44.482Z,100558.59
2022-10-02T19:01:42.162Z,100568.25
2022-10-02T19:04:45.433Z,100565.56
2022-10-02T19:07:19.949Z,100559.44
2022-10-02T19:09:53.145Z,100574.56
2022-10-02T19:12:25.687Z,100575.34
2022-10-02T19:15:15.677Z,100578.75
2022-10-02T19:17:58.591Z,100584.13
2022-10-02T19:20:47.947Z,100583.25
2022-10-02T19:23:26.584Z,100580.72
2022-10-02T19:25:57.675Z,100583.16
2022-10-02T19:28:29.673Z,100581.16
2022-10-02T19:31:03.951Z,100589.22
2022-10-02T19:33:43.543Z,100571.16
2022-10-02T19:36:18.111Z,100590.34
2022-10-02T19:38:53.400Z,100597.84
2022-10-02T19:41:23.592Z,100599.56
2022-10-02T19:43:58.226Z,100604.81
2022-10-02T19:46:37.448Z,100603.25
2022-10-02T19:49:07.646Z,100607.06
2022-10-02T19:51:46.320Z,100604.38
2022-10-02T19:54:19.908Z,100611.19
2022-10-02T19:56:48.655Z,100604.81
2022-10-02T19:59:20.189Z,100616.16
2022-10-02T20:01:53.127Z,100608.09
2022-10-02T20:04:23.234Z,100608.25
2022-10-02T20:06:54.805Z,100608.94
2022-10-02T20:09:29.493Z,100616.03
2022-10-02T20:12:01.177Z,100623.09
2022-10-02T20:14:33.892Z,100617.88
2022-10-02T20:17:09.030Z,100618.72
2022-10-02T20:19:41.298Z,100626.66
2022-10-02T20:22:17.677Z,100623.81
2022-10-02T20:24:52.356Z,100586.88
2022-10-02T20:27:29.137Z,100632.47
2022-10-02T20:30:04.571Z,100636.03
2022-10-02T20:32:38.372Z,100636.03
2022-10-02T20:35:15.365Z,100643.09
2022-10-02T20:37:44.124Z,100634.88
2022-10-02T20:40:18.866Z,100640.13
2022-10-02T20:42:54.124Z,100641.50
2022-10-02T20:45:29.210Z,100664.34
2022-10-02T20:48:49.205Z,100661.53
2022-10-02T20:51:39.866Z,100656.28
2022-10-02T20:54:27.666Z,100656.16
2022-10-02T20:57:14.939Z,100659.56
2022-10-02T21:00:15.086Z,100662.09
2022-10-02T21:03:08.964Z,100664.94
2022-10-02T21:05:57.490Z,100654.16
2022-10-02T21:08:50.090Z,100670.44
2022-10-02T21:11:25.762Z,100670.44
2022-10-02T21:14:23.366Z,100675.69
2022-10-02T21:17:29.290Z,100682.91
2022-10-02T21:20:49.734Z,100683.88
2022-10-02T21:23:46.824Z,100631.03
2022-10-02T21:26:43.268Z,100685.47
2022-10-02T21:29:24.181Z,100682.78
2022-10-02T21:32:17.046Z,100694.13
2022-10-02T21:34:59.738Z,100692.28
2022-10-02T21:37:44.783Z,100697.50
2022-10-02T21:40:51.165Z,100694.81
2022-10-02T21:44:03.715Z,100696.69
2022-10-02T21:47:15.000Z,100696.81
2022-10-02T21:50:20.337Z,100702.47
2022-10-02T21:53:17.921Z,100708.28
2022-10-02T21:56:05.663Z,100708.16
2022-10-02T21:59:13.240Z,100714.25
2022-10-02T22:02:09.757Z,100712.53
2022-10-02T22:04:56.645Z,100712.44
2022-10-02T22:07:33.637Z,100719.50
2022-10-02T22:10:10.233Z,100723.91
2022-10-02T22:12:51.520Z,100722.91
2022-10-02T22:15:24.847Z,100720.34
2022-10-02T22:18:00.645Z,100730.25
2022-10-02T22:21:12.428Z,100723.72
2022-10-02T22:23:56.514Z,100727.88
2022-10-02T22:26:38.394Z,100731.53
2022-10-02T22:29:14.461Z,100733.34
2022-10-02T22:32:38.135Z,100748.78
2022-10-02T22:35:19.475Z,100746.25
2022-10-02T22:38:05.005Z,100749.78
2022-10-02T22:40:44.262Z,100749.78
2022-10-02T22:43:20.712Z,100757.00
2022-10-02T22:45:54.177Z,100753.31
2022-10-02T22:48:30.958Z,100757.56
2022-10-02T22:51:11.117Z,100758.44
2022-10-02T22:53:46.166Z,100766.38
2022-10-02T22:56:25.273Z,100770.91
2022-10-02T22:59:00.593Z,100760.16
2022-10-02T23:01:38.680Z,100766.38
2022-10-02T23:04:20.108Z,100768.94
2022-10-02T23:06:56.057Z,100781.53
2022-10-02T23:09:29.113Z,100774.31
2022-10-02T23:12:06.068Z,100778.84
2022-10-02T23:14:44.598Z,100777.88
2022-10-02T23:17:19.504Z,100780.56
2022-10-02T23:19:55.722Z,100790.47
2022-10-02T23:22:31.002Z,100781.69
2022-10-02T23:25:18.434Z,100783.38
2022-10-02T23:27:55.384Z,100787.06
2022-10-02T23:30:24.664Z,100781.94
2022-10-02T23:32:58.541Z,100783.63
2022-10-02T23:35:32.073Z,100796.09
2022-10-02T23:38:08.508Z,100793.56
2022-10-02T23:41:10.285Z,100785.88
2022-10-02T23:43:55.660Z,100791.25
2022-10-02T23:46:29.829Z,100799.06
2022-10-02T23:48:57.970Z,100805.44
2022-10-02T23:51:38.389Z,100805.31
2022-10-02T23:54:33.778Z,100808.00
2022-10-02T23:57:32.637Z,100813.53
